createdAt,value
2019-04-01T00:00:19.354Z,34.92
2019-04-01T00:05:11.749Z,30.32
2019-04-01T00:07:37.875Z,32.95
2019-04-01T00:10:04.126Z,35.40
2019-04-01T00:12:30.263Z,35.63
2019-04-01T00:14:56.426Z,34.20
2019-04-01T00:17:22.560Z,29.35
2019-04-01T00:19:48.607Z,32.08
2019-04-01T00:22:14.732Z,32.60
2019-04-01T00:24:40.770Z,29.45
2019-04-01T00:27:06.899Z,29.20
2019-04-01T00:29:33.038Z,27.58
2019-04-01T00:31:59.165Z,27.17
2019-04-01T00:34:25.187Z,23.47
2019-04-01T00:36:51.306Z,23.30
2019-04-01T00:39:17.421Z,23.07
2019-04-01T00:44:29.789Z,27.98
2019-04-01T00:46:55.958Z,28.00
2019-04-01T00:49:21.996Z,23.87
2019-04-01T00:51:48.114Z,23.07
2019-04-01T00:54:14.234Z,31.85
2019-04-01T00:56:40.364Z,19.55
2019-04-01T00:59:06.485Z,20.92
2019-04-01T01:01:32.712Z,20.75
2019-04-01T01:03:58.739Z,16.97
2019-04-01T01:06:24.971Z,17.07
2019-04-01T01:08:51.104Z,20.20
2019-04-01T01:11:17.225Z,17.55
2019-04-01T01:13:43.365Z,22.50
2019-04-01T01:16:09.514Z,22.35
2019-04-01T01:18:35.632Z,23.47
2019-04-01T01:21:01.762Z,20.50
2019-04-01T01:23:27.789Z,21.20
2019-04-01T01:25:53.940Z,17.80
2019-04-01T01:28:19.964Z,20.05
2019-04-01T01:30:46.114Z,20.65
2019-04-01T01:33:12.251Z,19.17
2019-04-01T01:35:38.438Z,24.12
2019-04-01T01:38:04.595Z,18.77
2019-04-01T01:40:32.078Z,20.00
2019-04-01T01:42:58.247Z,16.30
2019-04-01T01:45:24.433Z,20.45
2019-04-01T01:47:50.548Z,17.92
2019-04-01T01:50:16.698Z,18.10
2019-04-01T01:52:44.241Z,18.00
2019-04-01T01:55:10.407Z,20.23
2019-04-01T01:57:36.723Z,16.40
2019-04-01T02:00:03.480Z,14.87
2019-04-01T02:02:29.496Z,17.15
2019-04-01T02:04:55.544Z,15.58
2019-04-01T02:07:21.587Z,18.95
2019-04-01T02:09:47.716Z,15.40
2019-04-01T02:12:13.927Z,15.72
2019-04-01T02:14:40.083Z,14.95
2019-04-01T02:17:06.229Z,16.77
2019-04-01T02:19:32.378Z,16.70
2019-04-01T02:21:58.433Z,16.12
2019-04-01T02:24:24.344Z,15.55
2019-04-01T02:26:50.409Z,15.05
2019-04-01T02:29:16.543Z,19.67
2019-04-01T02:31:42.603Z,17.70
2019-04-01T02:34:08.645Z,16.42
2019-04-01T02:36:34.673Z,15.85
2019-04-01T02:39:00.789Z,17.75
2019-04-01T02:41:26.821Z,17.65
2019-04-01T02:43:52.963Z,15.53
2019-04-01T02:46:19.078Z,15.28
2019-04-01T02:48:45.260Z,13.93
2019-04-01T02:51:11.385Z,17.02
2019-04-01T02:53:37.517Z,17.17
2019-04-01T02:56:03.704Z,11.90
2019-04-01T02:58:29.821Z,24.52
2019-04-01T03:00:55.969Z,17.60
2019-04-01T03:03:22.095Z,11.50
2019-04-01T03:05:48.341Z,15.20
2019-04-01T03:08:14.339Z,14.95
2019-04-01T03:10:44.826Z,14.47
2019-04-01T03:13:08.496Z,12.68
2019-04-01T03:15:34.651Z,14.93
2019-04-01T03:18:00.801Z,14.25
2019-04-01T03:20:26.936Z,13.80
2019-04-01T03:22:53.088Z,20.45
2019-04-01T03:25:19.218Z,16.97
2019-04-01T03:27:45.341Z,17.57
2019-04-01T03:30:11.599Z,17.85
2019-04-01T03:32:44.267Z,18.55
2019-04-01T03:35:05.886Z,24.55
2019-04-01T03:37:31.983Z,18.62
2019-04-01T03:39:58.118Z,14.75
2019-04-01T03:42:24.265Z,21.60
2019-04-01T03:44:54.826Z,16.57
2019-04-01T03:47:18.765Z,23.15
2019-04-01T03:49:44.990Z,12.13
2019-04-01T03:52:11.146Z,16.30
2019-04-01T03:54:37.300Z,13.88
2019-04-01T03:57:03.562Z,16.55
2019-04-01T03:59:29.701Z,17.98
2019-04-01T04:01:55.766Z,14.68
2019-04-01T04:04:21.890Z,22.62
2019-04-01T04:06:48.061Z,16.27
2019-04-01T04:09:14.069Z,16.67
2019-04-01T04:11:40.225Z,18.02
2019-04-01T04:14:06.257Z,15.48
2019-04-01T04:16:32.400Z,13.08
2019-04-01T04:18:58.530Z,18.05
2019-04-01T04:21:24.694Z,21.12
2019-04-01T04:23:50.833Z,21.60
2019-04-01T04:26:16.968Z,15.13
2019-04-01T04:28:43.027Z,20.17
2019-04-01T04:31:09.157Z,17.67
2019-04-01T04:33:35.291Z,20.30
2019-04-01T04:36:01.302Z,15.25
2019-04-01T04:38:27.486Z,14.53
2019-04-01T04:40:53.603Z,17.87
2019-04-01T04:43:19.810Z,23.02
2019-04-01T04:45:45.833Z,19.80
2019-04-01T04:48:11.965Z,16.77
2019-04-01T04:50:38.108Z,18.30
2019-04-01T04:53:04.355Z,19.62
2019-04-01T04:55:30.517Z,17.27
2019-04-01T04:57:56.649Z,15.03
2019-04-01T05:00:22.814Z,16.67
2019-04-01T05:02:49.013Z,22.05
2019-04-01T05:05:15.152Z,13.72
2019-04-01T05:07:41.169Z,16.42
2019-04-01T05:10:07.701Z,19.15
2019-04-01T05:12:33.834Z,17.15
2019-04-01T05:14:59.967Z,19.50
2019-04-01T05:17:26.230Z,17.23
2019-04-01T05:19:52.393Z,13.38
2019-04-01T05:22:20.437Z,16.15
2019-04-01T05:24:46.820Z,16.00
2019-04-01T05:27:13.755Z,17.40
2019-04-01T05:29:40.598Z,18.92
2019-04-01T05:32:10.316Z,17.42
2019-04-01T05:34:38.274Z,17.95
2019-04-01T05:37:04.552Z,15.23
2019-04-01T05:39:30.870Z,20.60
2019-04-01T05:41:57.034Z,20.08
2019-04-01T05:44:23.244Z,28.45
2019-04-01T05:46:49.441Z,27.80
2019-04-01T05:49:15.594Z,25.17
2019-04-01T05:51:41.838Z,15.25
2019-04-01T05:54:07.973Z,16.95
2019-04-01T05:56:34.297Z,18.12
2019-04-01T05:59:00.457Z,23.62
2019-04-01T06:01:28.516Z,23.67
2019-04-01T06:03:54.864Z,16.70
2019-04-01T06:06:23.448Z,22.52
2019-04-01T06:08:50.855Z,23.55
2019-04-01T06:11:17.027Z,16.10
2019-04-01T06:13:43.304Z,17.52
2019-04-01T06:16:09.633Z,16.90
2019-04-01T06:18:35.793Z,10.45
2019-04-01T06:21:01.976Z,12.30
2019-04-01T06:23:28.215Z,12.47
2019-04-01T06:25:54.521Z,13.03
2019-04-01T06:28:20.672Z,13.80
2019-04-01T06:30:48.253Z,14.90
2019-04-01T06:33:14.402Z,11.95
2019-04-01T06:35:41.916Z,17.32
2019-04-01T06:38:08.063Z,12.20
2019-04-01T06:40:34.217Z,15.15
2019-04-01T06:43:01.559Z,18.85
2019-04-01T06:45:27.747Z,10.95
2019-04-01T06:47:53.864Z,11.48
2019-04-01T06:50:20.124Z,14.63
2019-04-01T06:52:46.244Z,12.10
2019-04-01T06:55:12.472Z,14.28
2019-04-01T06:57:38.605Z,16.65
2019-04-01T07:00:04.748Z,14.45
2019-04-01T07:02:30.934Z,10.23
2019-04-01T07:04:57.075Z,9.85
2019-04-01T07:07:23.339Z,11.78
2019-04-01T07:09:50.751Z,9.50
2019-04-01T07:12:17.227Z,10.90
2019-04-01T07:14:43.450Z,14.03
2019-04-01T07:17:09.799Z,12.75
2019-04-01T07:19:35.934Z,14.00
2019-04-01T07:22:02.075Z,11.60
2019-04-01T07:24:28.229Z,8.38
2019-04-01T07:26:56.434Z,6.53
2019-04-01T07:29:23.051Z,9.18
2019-04-01T07:31:49.177Z,13.78
2019-04-01T07:34:15.299Z,14.90
2019-04-01T07:36:41.337Z,13.78
2019-04-01T07:39:07.459Z,11.75
2019-04-01T07:41:33.595Z,8.35
2019-04-01T07:44:01.136Z,7.10
2019-04-01T07:46:27.296Z,14.55
2019-04-01T07:48:53.444Z,12.60
2019-04-01T07:51:20.484Z,11.45
2019-04-01T07:53:46.615Z,10.63
2019-04-01T07:56:12.773Z,7.62
2019-04-01T07:58:38.930Z,13.55
2019-04-01T08:01:05.043Z,8.68
2019-04-01T08:03:32.855Z,14.75
2019-04-01T08:05:59.108Z,7.28
2019-04-01T08:08:25.264Z,8.30
2019-04-01T08:10:52.494Z,11.03
2019-04-01T08:13:18.625Z,11.70
2019-04-01T08:15:45.155Z,14.83
2019-04-01T08:18:11.296Z,11.25
2019-04-01T08:20:37.415Z,13.65
2019-04-01T08:23:03.597Z,8.85
2019-04-01T08:25:29.719Z,7.62
2019-04-01T08:27:55.830Z,9.13
2019-04-01T08:30:22.031Z,9.80
2019-04-01T08:32:48.155Z,9.35
2019-04-01T08:35:14.331Z,10.18
2019-04-01T08:37:40.874Z,9.98
2019-04-01T08:40:08.420Z,7.78
2019-04-01T08:42:34.539Z,9.70
2019-04-01T08:45:00.662Z,9.83
2019-04-01T08:47:26.814Z,8.93
2019-04-01T08:49:52.956Z,8.93
2019-04-01T08:52:21.254Z,10.78
2019-04-01T08:54:47.398Z,11.80
2019-04-01T08:57:14.157Z,8.80
2019-04-01T08:59:40.297Z,20.08
2019-04-01T09:02:17.014Z,10.70
2019-04-01T09:04:35.778Z,11.57
2019-04-01T09:07:02.061Z,10.98
2019-04-01T09:09:29.061Z,7.75
2019-04-01T09:11:56.332Z,8.05
2019-04-01T09:14:22.477Z,7.05
2019-04-01T09:16:48.910Z,15.80
2019-04-01T09:19:15.036Z,10.70
2019-04-01T09:21:41.233Z,11.68
2019-04-01T09:24:07.415Z,8.03
2019-04-01T09:26:33.533Z,11.48
2019-04-01T09:28:59.714Z,7.45
2019-04-01T09:31:25.855Z,5.78
2019-04-01T09:33:51.911Z,9.80
2019-04-01T09:36:18.152Z,5.55
2019-04-01T09:38:44.301Z,11.33
2019-04-01T09:41:13.322Z,6.47
2019-04-01T09:43:38.436Z,8.33
2019-04-01T09:46:04.567Z,8.35
2019-04-01T09:48:31.268Z,8.60
2019-04-01T09:50:57.399Z,6.97
2019-04-01T09:53:23.519Z,7.45
2019-04-01T09:55:49.544Z,7.30
2019-04-01T09:58:15.702Z,10.55
2019-04-01T10:00:41.945Z,5.40
2019-04-01T10:03:08.109Z,11.05
2019-04-01T10:05:34.231Z,8.78
2019-04-01T10:08:00.378Z,7.42
2019-04-01T10:10:26.505Z,10.70
2019-04-01T10:12:52.633Z,8.88
2019-04-01T10:15:18.754Z,6.08
2019-04-01T10:17:44.944Z,10.05
2019-04-01T10:20:11.194Z,6.22
2019-04-01T10:22:37.344Z,5.85
2019-04-01T10:25:05.177Z,12.30
2019-04-01T10:27:31.505Z,12.18
2019-04-01T10:29:58.638Z,5.10
2019-04-01T10:32:24.745Z,8.55
2019-04-01T10:34:50.989Z,12.88
2019-04-01T10:37:17.022Z,11.33
2019-04-01T10:39:43.140Z,6.33
2019-04-01T10:42:09.255Z,10.30
2019-04-01T10:44:35.414Z,10.23
2019-04-01T10:47:01.860Z,5.60
2019-04-01T10:49:28.226Z,13.78
2019-04-01T10:51:54.218Z,7.65
2019-04-01T10:54:20.413Z,7.30
2019-04-01T10:56:46.616Z,9.48
2019-04-01T10:59:12.835Z,7.70
2019-04-01T11:01:41.603Z,7.72
2019-04-01T11:04:07.972Z,4.42
2019-04-01T11:06:34.307Z,8.80
2019-04-01T11:09:00.529Z,8.78
2019-04-01T11:11:27.342Z,7.03
2019-04-01T11:13:54.077Z,8.98
2019-04-01T11:16:20.554Z,15.63
2019-04-01T11:18:46.818Z,6.33
2019-04-01T11:21:13.023Z,3.90
2019-04-01T11:23:39.594Z,10.82
2019-04-01T11:26:05.721Z,9.35
2019-04-01T11:28:31.829Z,7.75
2019-04-01T11:30:58.002Z,7.97
2019-04-01T11:33:24.464Z,9.88
2019-04-01T11:35:50.639Z,8.40
2019-04-01T11:38:16.682Z,7.50
2019-04-01T11:40:43.995Z,4.85
2019-04-01T11:43:10.209Z,11.38
2019-04-01T11:45:36.360Z,5.45
2019-04-01T11:48:02.496Z,5.05
2019-04-01T11:50:28.759Z,9.58
2019-04-01T11:52:54.898Z,10.43
2019-04-01T11:55:25.123Z,7.72
2019-04-01T11:57:49.071Z,10.48
2019-04-01T12:00:17.032Z,8.58
2019-04-01T12:02:43.203Z,11.28
2019-04-01T12:05:09.510Z,5.75
2019-04-01T12:07:35.672Z,9.20
2019-04-01T12:10:02.124Z,8.23
2019-04-01T12:12:28.340Z,14.53
2019-04-01T12:14:54.999Z,7.97
2019-04-01T12:17:21.140Z,10.15
2019-04-01T12:19:57.199Z,12.15
2019-04-01T12:22:23.386Z,5.33
2019-04-01T12:24:49.635Z,16.95
2019-04-01T12:27:16.344Z,6.78
2019-04-01T12:29:42.731Z,10.95
2019-04-01T12:32:08.867Z,8.00
2019-04-01T12:34:34.885Z,9.65
2019-04-01T12:37:01.036Z,5.12
2019-04-01T12:39:27.178Z,11.30
2019-04-01T12:41:53.305Z,8.40
2019-04-01T12:44:19.449Z,12.68
2019-04-01T12:46:45.661Z,8.45
2019-04-01T12:49:11.783Z,6.28
2019-04-01T12:51:40.666Z,14.23
2019-04-01T12:54:07.014Z,5.42
2019-04-01T12:56:33.140Z,5.03
2019-04-01T12:58:59.378Z,5.03
2019-04-01T13:01:25.546Z,3.95
2019-04-01T13:03:51.791Z,11.08
2019-04-01T13:06:20.584Z,6.87
2019-04-01T13:08:47.801Z,4.87
2019-04-01T13:11:13.945Z,11.53
2019-04-01T13:13:40.095Z,6.45
2019-04-01T13:16:09.013Z,3.95
2019-04-01T13:18:34.257Z,6.87
2019-04-01T13:21:00.406Z,11.95
2019-04-01T13:23:40.039Z,15.10
2019-04-01T13:26:03.578Z,10.20
2019-04-01T13:28:29.801Z,10.30
2019-04-01T13:30:55.931Z,7.83
2019-04-01T13:33:22.261Z,7.78
2019-04-01T13:35:48.533Z,9.35
2019-04-01T13:38:16.480Z,9.10
2019-04-01T13:40:44.201Z,13.28
2019-04-01T13:43:11.465Z,5.42
2019-04-01T13:45:38.641Z,7.47
2019-04-01T13:48:05.020Z,9.28
2019-04-01T13:50:31.746Z,4.83
2019-04-01T13:52:58.639Z,8.35
2019-04-01T13:55:24.915Z,4.53
2019-04-01T13:57:52.412Z,6.72
2019-04-01T14:00:20.278Z,6.20
2019-04-01T14:02:46.639Z,10.03
2019-04-01T14:05:13.392Z,9.63
2019-04-01T14:07:40.612Z,7.95
2019-04-01T14:10:06.834Z,6.47
2019-04-01T14:12:32.985Z,7.75
2019-04-01T14:14:59.149Z,9.20
2019-04-01T14:17:25.296Z,5.00
2019-04-01T14:19:51.409Z,8.20
2019-04-01T14:22:17.570Z,9.13
2019-04-01T14:24:45.209Z,5.62
2019-04-01T14:27:12.045Z,8.18
2019-04-01T14:29:38.159Z,8.53
2019-04-01T14:32:04.528Z,6.78
2019-04-01T14:34:31.136Z,9.73
2019-04-01T14:36:57.262Z,4.80
2019-04-01T14:39:23.434Z,10.20
2019-04-01T14:41:49.704Z,5.03
2019-04-01T14:44:15.838Z,6.53
2019-04-01T14:46:43.039Z,6.08
2019-04-01T14:49:11.420Z,11.55
2019-04-01T14:51:37.558Z,23.15
2019-04-01T14:54:03.697Z,11.45
2019-04-01T14:56:29.860Z,6.22
2019-04-01T14:58:55.980Z,3.55
2019-04-01T15:01:22.233Z,10.93
2019-04-01T15:03:48.264Z,14.25
2019-04-01T15:06:14.421Z,9.08
2019-04-01T15:08:40.655Z,6.92
2019-04-01T15:11:12.322Z,7.92
2019-04-01T15:13:39.277Z,11.85
2019-04-01T15:16:05.719Z,11.73
2019-04-01T15:18:34.326Z,15.38
2019-04-01T15:21:00.098Z,9.30
2019-04-01T15:23:27.433Z,22.20
2019-04-01T15:25:54.511Z,7.28
2019-04-01T15:28:20.829Z,9.48
2019-04-01T15:30:47.036Z,11.88
2019-04-01T15:33:13.160Z,4.28
2019-04-01T15:35:39.277Z,15.58
2019-04-01T15:38:05.431Z,24.00
2019-04-01T15:40:57.993Z,22.93
2019-04-01T15:43:22.471Z,11.80
2019-04-01T15:45:48.683Z,7.17
2019-04-01T15:48:14.912Z,30.17
2019-04-01T15:50:41.159Z,11.85
2019-04-01T15:53:07.292Z,12.20
2019-04-01T15:55:33.473Z,9.95
2019-04-01T15:57:59.718Z,22.37
2019-04-01T16:00:25.943Z,9.45
2019-04-01T16:02:52.086Z,18.05
2019-04-01T16:05:18.257Z,13.53
2019-04-01T16:07:44.394Z,7.47
2019-04-01T16:10:11.061Z,27.67
2019-04-01T16:12:37.221Z,16.02
2019-04-01T16:15:27.801Z,6.25
2019-04-01T16:17:54.160Z,14.18
2019-04-01T16:20:20.488Z,8.35
2019-04-01T16:22:46.822Z,20.50
2019-04-01T16:25:13.497Z,11.40
2019-04-01T16:27:42.820Z,15.88
2019-04-01T16:30:09.326Z,11.85
2019-04-01T16:32:36.252Z,8.38
2019-04-01T16:35:04.216Z,12.35
2019-04-01T16:37:30.465Z,8.83
2019-04-01T16:39:58.399Z,6.47
2019-04-01T16:42:24.543Z,7.42
2019-04-01T16:44:53.974Z,4.75
2019-04-01T16:47:18.837Z,11.55
2019-04-01T16:49:45.086Z,21.52
2019-04-01T16:52:11.537Z,10.72
2019-04-01T16:54:38.126Z,7.45
2019-04-01T16:57:06.172Z,13.60
2019-04-01T16:59:32.555Z,19.42
2019-04-01T17:01:58.813Z,19.35
2019-04-01T17:04:25.053Z,17.98
2019-04-01T17:06:53.199Z,26.97
2019-04-01T17:09:19.459Z,26.12
2019-04-01T17:11:45.696Z,18.30
2019-04-01T17:14:11.945Z,21.55
2019-04-01T17:16:38.617Z,23.62
2019-04-01T17:19:04.805Z,46.42
2019-04-01T17:21:31.066Z,58.83
2019-04-01T17:23:58.404Z,35.25
2019-04-01T17:26:25.516Z,31.40
2019-04-01T17:28:51.768Z,31.70
2019-04-01T17:31:18.004Z,40.67
2019-04-01T17:33:44.264Z,17.37
2019-04-01T17:36:11.165Z,11.70
2019-04-01T17:38:37.666Z,21.45
2019-04-01T17:41:04.190Z,21.87
2019-04-01T17:43:32.252Z,28.83
2019-04-01T17:45:58.499Z,22.10
2019-04-01T17:48:24.664Z,37.63
2019-04-01T17:50:50.824Z,42.27
2019-04-01T17:53:17.068Z,31.10
2019-04-01T17:55:45.528Z,25.20
2019-04-01T17:58:11.495Z,52.40
2019-04-01T18:00:39.575Z,30.62
2019-04-01T18:03:09.189Z,26.62
2019-04-01T18:05:33.843Z,19.62
2019-04-01T18:08:00.004Z,17.85
2019-04-01T18:10:28.042Z,19.80
2019-04-01T18:12:54.643Z,27.10
2019-04-01T18:15:20.854Z,21.90
2019-04-01T18:17:47.155Z,15.20
2019-04-01T18:20:13.393Z,13.90
2019-04-01T18:22:39.632Z,16.02
2019-04-01T18:25:06.255Z,13.75
2019-04-01T18:27:32.375Z,11.80
2019-04-01T18:30:00.352Z,13.48
2019-04-01T18:32:26.674Z,9.58
2019-04-01T18:34:52.910Z,11.65
2019-04-01T18:37:19.182Z,21.20
2019-04-01T18:39:48.470Z,21.25
2019-04-01T18:42:13.588Z,26.57
2019-04-01T18:44:39.811Z,21.25
2019-04-01T18:47:06.003Z,35.33
2019-04-01T18:49:32.275Z,23.55
2019-04-01T18:51:58.575Z,21.42
2019-04-01T18:54:24.902Z,30.02
2019-04-01T18:56:51.137Z,19.10
2019-04-01T18:59:17.382Z,20.12
2019-04-01T19:01:44.208Z,18.62
2019-04-01T19:04:11.931Z,19.98
2019-04-01T19:06:38.230Z,14.10
2019-04-01T19:09:09.354Z,13.35
2019-04-01T19:11:34.858Z,19.17
2019-04-01T19:14:01.271Z,15.95
2019-04-01T19:16:27.554Z,20.27
2019-04-01T19:18:53.675Z,14.60
2019-04-01T19:21:19.847Z,26.82
2019-04-01T19:23:46.082Z,26.55
2019-04-01T19:26:12.224Z,16.48
2019-04-01T19:28:38.414Z,14.60
2019-04-01T19:31:04.554Z,12.35
2019-04-01T19:33:30.714Z,14.25
2019-04-01T19:35:56.860Z,26.07
2019-04-01T19:38:22.998Z,21.45
2019-04-01T19:40:49.168Z,24.10
2019-04-01T19:43:16.351Z,22.85
2019-04-01T19:45:43.181Z,23.62
2019-04-01T19:48:09.317Z,22.42
2019-04-01T19:50:35.471Z,20.12
2019-04-01T19:53:03.681Z,15.03
2019-04-01T19:55:30.075Z,13.70
2019-04-01T19:57:58.333Z,17.65
2019-04-01T20:00:27.936Z,21.90
2019-04-01T20:02:52.958Z,19.40
2019-04-01T20:05:20.185Z,20.27
2019-04-01T20:07:53.242Z,16.60
2019-04-01T20:10:19.536Z,17.95
2019-04-01T20:12:50.691Z,16.07
2019-04-01T20:15:21.042Z,13.90
2019-04-01T20:17:47.491Z,12.37
2019-04-01T20:20:14.857Z,12.75
2019-04-01T20:22:41.318Z,21.48
2019-04-01T20:25:10.928Z,25.62
2019-04-01T20:27:39.277Z,32.35
2019-04-01T20:30:09.120Z,34.43
2019-04-01T20:32:35.492Z,60.50
2019-04-01T20:35:01.627Z,49.08
2019-04-01T20:37:29.111Z,49.85
2019-04-01T20:39:55.641Z,40.70
2019-04-01T20:42:21.885Z,28.73
2019-04-01T20:44:48.019Z,15.32
2019-04-01T20:47:14.174Z,44.93
2019-04-01T20:49:40.319Z,19.32
2019-04-01T20:52:06.451Z,15.60
2019-04-01T20:54:32.617Z,45.30
2019-04-01T20:56:58.776Z,112.08
2019-04-01T20:59:24.932Z,88.75
2019-04-01T21:01:51.066Z,74.32
2019-04-01T21:04:17.106Z,57.25
2019-04-01T21:06:43.226Z,35.40
2019-04-01T21:09:09.454Z,24.30
2019-04-01T21:11:35.611Z,97.90
2019-04-01T21:14:03.094Z,91.17
2019-04-01T21:16:29.381Z,84.10
2019-04-01T21:18:55.514Z,46.88
2019-04-01T21:21:21.708Z,33.38
2019-04-01T21:23:47.843Z,35.92
2019-04-01T21:26:14.022Z,55.28
2019-04-01T21:28:40.155Z,31.37
2019-04-01T21:31:06.355Z,20.30
2019-04-01T21:33:32.588Z,14.23
2019-04-01T21:35:58.719Z,9.43
2019-04-01T21:38:24.862Z,10.93
2019-04-01T21:40:50.989Z,13.13
2019-04-01T21:43:17.227Z,14.33
2019-04-01T21:45:44.925Z,8.35
2019-04-01T21:48:11.243Z,11.90
2019-04-01T21:50:37.472Z,10.60
2019-04-01T21:53:03.607Z,16.15
2019-04-01T21:55:29.743Z,8.35
2019-04-01T21:57:55.876Z,8.88
2019-04-01T22:00:44.956Z,8.80
2019-04-01T22:03:12.306Z,18.48
2019-04-01T22:05:39.348Z,20.65
2019-04-01T22:08:06.276Z,17.07
2019-04-01T22:10:33.354Z,9.53
2019-04-01T22:12:59.486Z,7.35
2019-04-01T22:15:25.622Z,6.90
2019-04-01T22:17:51.778Z,8.53
2019-04-01T22:20:17.915Z,6.83
2019-04-01T22:22:44.169Z,8.80
2019-04-01T22:25:10.338Z,31.02
2019-04-01T22:27:36.470Z,28.35
2019-04-01T22:30:05.988Z,14.13
2019-04-01T22:32:32.122Z,37.03
2019-04-01T22:34:58.265Z,14.63
2019-04-01T22:37:27.360Z,22.48
2019-04-01T22:39:52.548Z,18.07
2019-04-01T22:42:18.723Z,8.15
2019-04-01T22:44:44.844Z,8.68
2019-04-01T22:47:11.008Z,6.03
2019-04-01T22:49:37.157Z,15.65
2019-04-01T22:52:03.273Z,6.87
2019-04-01T22:54:30.218Z,9.33
2019-04-01T22:56:57.295Z,11.10
2019-04-01T22:59:23.578Z,12.37
2019-04-01T23:01:50.016Z,19.60
2019-04-01T23:04:16.165Z,19.27
2019-04-01T23:06:42.327Z,16.23
2019-04-01T23:09:08.448Z,20.27
2019-04-01T23:11:34.678Z,51.42
2019-04-01T23:14:00.734Z,31.23
2019-04-01T23:16:27.221Z,51.00
2019-04-01T23:18:53.361Z,30.92
2019-04-01T23:21:19.519Z,37.75
2019-04-01T23:23:45.578Z,26.23
2019-04-01T23:26:11.619Z,34.13
2019-04-01T23:28:37.828Z,30.45
2019-04-01T23:31:04.067Z,31.00
2019-04-01T23:33:30.222Z,29.72
2019-04-01T23:35:56.507Z,31.12
2019-04-01T23:38:22.630Z,41.35
2019-04-01T23:40:49.681Z,30.95
2019-04-01T23:43:15.844Z,33.35
2019-04-01T23:45:41.983Z,27.90
2019-04-01T23:48:08.124Z,19.70
2019-04-01T23:50:34.286Z,22.52
2019-04-01T23:56:03.651Z,9.65
2019-04-01T23:58:29.911Z,12.00
